createdAt,value
2019-03-28T00:00:59.342Z,71.52
2019-03-28T00:03:49.813Z,71.36
2019-03-28T00:06:40.837Z,71.77
2019-03-28T00:09:31.046Z,71.67
2019-03-28T00:12:21.797Z,71.73
2019-03-28T00:15:13.505Z,71.96
2019-03-28T00:18:04.132Z,71.85
2019-03-28T00:20:55.065Z,71.57
2019-03-28T00:23:52.196Z,71.39
2019-03-28T00:26:42.979Z,71.43
2019-03-28T00:29:34.524Z,71.29
2019-03-28T00:32:24.952Z,71.47
2019-03-28T00:35:15.853Z,71.47
2019-03-28T00:38:06.266Z,71.66
2019-03-28T00:40:57.142Z,71.56
2019-03-28T00:43:48.152Z,71.03
2019-03-28T00:46:38.374Z,71.19
2019-03-28T00:49:28.736Z,71.38
2019-03-28T00:52:19.034Z,71.20
2019-03-28T00:55:11.324Z,70.96
2019-03-28T00:58:02.148Z,71.17
2019-03-28T01:00:52.883Z,70.97
2019-03-28T01:03:43.830Z,71.05
2019-03-28T01:06:34.125Z,71.20
2019-03-28T01:09:25.587Z,71.19
2019-03-28T01:12:16.286Z,71.14
2019-03-28T01:15:07.870Z,71.15
2019-03-28T01:17:58.761Z,71.17
2019-03-28T01:20:49.805Z,71.15
2019-03-28T01:23:40.833Z,70.93
2019-03-28T01:26:31.124Z,70.83
2019-03-28T01:29:21.666Z,70.90
2019-03-28T01:32:12.535Z,71.07
2019-03-28T01:35:04.848Z,71.17
2019-03-28T01:37:55.723Z,70.96
2019-03-28T01:40:47.441Z,71.12
2019-03-28T01:43:38.276Z,71.15
2019-03-28T01:46:28.880Z,71.28
2019-03-28T01:49:19.713Z,71.27
2019-03-28T01:52:10.985Z,71.35
2019-03-28T01:55:01.358Z,71.31
2019-03-28T01:57:52.298Z,71.37
2019-03-28T02:00:43.056Z,71.42
2019-03-28T02:03:33.703Z,71.31
2019-03-28T02:06:24.495Z,71.37
2019-03-28T02:09:15.186Z,71.28
2019-03-28T02:12:05.866Z,71.24
2019-03-28T02:14:56.477Z,71.51
2019-03-28T02:17:47.016Z,71.42
2019-03-28T02:20:37.953Z,71.24
2019-03-28T02:23:28.712Z,71.37
2019-03-28T02:26:19.657Z,71.43
2019-03-28T02:29:10.031Z,71.42
2019-03-28T02:32:01.382Z,71.65
2019-03-28T02:34:52.299Z,71.70
2019-03-28T02:37:42.823Z,71.65
2019-03-28T02:40:33.522Z,71.81
2019-03-28T02:43:24.513Z,71.91
2019-03-28T02:46:15.762Z,71.94
2019-03-28T02:49:06.600Z,71.97
2019-03-28T02:51:58.390Z,72.02
2019-03-28T02:54:49.360Z,72.12
2019-03-28T02:57:42.082Z,72.19
2019-03-28T03:00:32.323Z,72.16
2019-03-28T03:03:22.730Z,72.27
2019-03-28T03:06:13.508Z,72.38
2019-03-28T03:09:05.614Z,72.35
2019-03-28T03:11:56.010Z,72.37
2019-03-28T03:14:46.643Z,72.33
2019-03-28T03:17:37.134Z,72.34
2019-03-28T03:20:27.635Z,72.40
2019-03-28T03:23:17.835Z,72.42
2019-03-28T03:26:08.123Z,72.47
2019-03-28T03:28:59.291Z,72.48
2019-03-28T03:31:50.111Z,72.54
2019-03-28T03:34:42.321Z,72.43
2019-03-28T03:37:32.990Z,72.54
2019-03-28T03:40:23.508Z,72.57
2019-03-28T03:43:13.235Z,72.70
2019-03-28T03:46:03.812Z,72.69
2019-03-28T03:48:55.758Z,72.77
2019-03-28T03:51:46.770Z,72.88
2019-03-28T03:54:37.137Z,72.92
2019-03-28T03:57:28.035Z,73.02
2019-03-28T04:00:29.970Z,73.01
2019-03-28T04:03:21.186Z,73.16
2019-03-28T04:06:12.025Z,73.25
2019-03-28T04:09:02.779Z,73.15
2019-03-28T04:11:53.734Z,73.07
2019-03-28T04:14:44.581Z,73.22
2019-03-28T04:17:35.408Z,73.44
2019-03-28T04:20:25.855Z,73.64
2019-03-28T04:23:16.431Z,73.80
2019-03-28T04:26:07.057Z,73.97
2019-03-28T04:28:58.196Z,73.95
2019-03-28T04:31:48.576Z,74.07
2019-03-28T04:34:39.309Z,74.12
2019-03-28T04:37:30.430Z,74.17
2019-03-28T04:40:21.183Z,74.23
2019-03-28T04:43:11.837Z,74.38
2019-03-28T04:46:02.880Z,74.39
2019-03-28T04:48:53.735Z,74.37
2019-03-28T04:51:44.437Z,74.55
2019-03-28T04:54:38.861Z,80.88
2019-03-28T04:57:29.799Z,83.72
2019-03-28T05:00:21.030Z,84.23
2019-03-28T05:03:11.676Z,83.95
2019-03-28T05:06:02.296Z,84.37
2019-03-28T05:08:52.995Z,84.55
2019-03-28T05:11:43.878Z,84.39
2019-03-28T05:14:34.682Z,84.57
2019-03-28T05:17:25.267Z,84.41
2019-03-28T05:20:16.087Z,84.72
2019-03-28T05:23:06.904Z,84.05
2019-03-28T05:25:58.784Z,84.27
2019-03-28T05:28:57.328Z,84.79
2019-03-28T05:31:41.853Z,84.58
2019-03-28T05:34:32.653Z,84.36
2019-03-28T05:37:23.643Z,84.99
2019-03-28T05:40:16.213Z,85.25
2019-03-28T05:43:06.777Z,85.09
2019-03-28T05:45:57.787Z,85.04
2019-03-28T05:48:48.218Z,84.90
2019-03-28T05:51:39.029Z,84.95
2019-03-28T05:54:29.695Z,85.18
2019-03-28T05:57:20.313Z,84.96
2019-03-28T06:00:11.890Z,85.30
2019-03-28T06:03:02.852Z,84.98
2019-03-28T06:05:53.542Z,85.23
2019-03-28T06:08:44.352Z,85.44
2019-03-28T06:11:35.219Z,85.44
2019-03-28T06:14:26.199Z,84.70
2019-03-28T06:17:17.234Z,85.12
2019-03-28T06:20:10.293Z,85.44
2019-03-28T06:23:01.219Z,84.85
2019-03-28T06:25:51.589Z,85.51
2019-03-28T06:28:42.518Z,85.56
2019-03-28T06:31:33.103Z,85.45
2019-03-28T06:34:24.254Z,85.26
2019-03-28T06:37:14.920Z,85.65
2019-03-28T06:40:06.325Z,85.52
2019-03-28T06:42:57.639Z,84.86
2019-03-28T06:45:48.927Z,85.26
2019-03-28T06:48:39.629Z,85.18
2019-03-28T06:51:30.378Z,84.91
2019-03-28T06:54:20.214Z,84.93
2019-03-28T06:57:10.940Z,85.25
2019-03-28T07:00:01.577Z,85.02
2019-03-28T07:02:53.496Z,84.96
2019-03-28T07:05:44.287Z,85.01
2019-03-28T07:08:34.884Z,85.33
2019-03-28T07:11:25.358Z,85.31
2019-03-28T07:14:16.915Z,85.09
2019-03-28T07:17:07.432Z,84.92
2019-03-28T07:19:58.429Z,84.22
2019-03-28T07:22:49.244Z,85.05
2019-03-28T07:25:40.434Z,84.57
2019-03-28T07:28:31.492Z,84.60
2019-03-28T07:31:22.561Z,84.73
2019-03-28T07:34:13.709Z,84.90
2019-03-28T07:37:04.665Z,84.57
2019-03-28T07:39:55.436Z,84.59
2019-03-28T07:42:46.259Z,84.79
2019-03-28T07:45:37.570Z,84.83
2019-03-28T07:48:28.211Z,84.76
2019-03-28T07:51:19.118Z,84.55
2019-03-28T07:54:10.058Z,84.92
2019-03-28T07:57:00.890Z,85.00
2019-03-28T08:00:03.530Z,84.96
2019-03-28T08:02:44.688Z,84.85
2019-03-28T08:05:35.363Z,85.14
2019-03-28T08:08:38.395Z,85.47
2019-03-28T08:11:18.825Z,85.38
2019-03-28T08:14:10.016Z,85.17
2019-03-28T08:17:01.379Z,84.97
2019-03-28T08:19:52.188Z,85.07
2019-03-28T08:22:42.883Z,85.04
2019-03-28T08:25:34.034Z,84.56
2019-03-28T08:28:24.833Z,85.18
2019-03-28T08:31:15.968Z,85.10
2019-03-28T08:34:06.690Z,84.87
2019-03-28T08:36:57.826Z,85.19
2019-03-28T08:39:48.389Z,84.45
2019-03-28T08:42:39.050Z,84.38
2019-03-28T08:45:29.694Z,84.89
2019-03-28T08:48:20.375Z,84.21
2019-03-28T08:51:11.198Z,84.55
2019-03-28T08:54:01.697Z,84.80
2019-03-28T08:56:52.275Z,84.95
2019-03-28T08:59:43.157Z,84.23
2019-03-28T09:02:33.516Z,84.29
2019-03-28T09:05:24.166Z,84.85
2019-03-28T09:08:14.956Z,84.33
2019-03-28T09:11:05.550Z,84.69
2019-03-28T09:13:56.095Z,85.01
2019-03-28T09:16:47.321Z,84.54
2019-03-28T09:19:39.203Z,85.22
2019-03-28T09:22:30.144Z,85.18
2019-03-28T09:25:21.252Z,85.35
2019-03-28T09:28:11.641Z,84.98
2019-03-28T09:31:03.273Z,84.42
2019-03-28T09:33:54.113Z,84.20
2019-03-28T09:36:44.432Z,85.13
2019-03-28T09:39:34.760Z,83.85
2019-03-28T09:42:25.515Z,84.04
2019-03-28T09:45:16.557Z,84.01
2019-03-28T09:48:11.304Z,84.54
2019-03-28T09:51:00.679Z,85.05
2019-03-28T09:53:51.288Z,83.97
2019-03-28T09:56:42.217Z,84.70
2019-03-28T09:59:33.008Z,84.39
2019-03-28T10:02:24.912Z,84.14
2019-03-28T10:05:15.671Z,84.87
2019-03-28T10:08:07.092Z,84.80
2019-03-28T10:10:57.658Z,84.56
2019-03-28T10:13:48.337Z,84.87
2019-03-28T10:16:40.354Z,85.03
2019-03-28T10:19:31.008Z,84.31
2019-03-28T10:22:22.485Z,85.06
2019-03-28T10:25:14.475Z,84.88
2019-03-28T10:28:05.520Z,84.64
2019-03-28T10:30:57.838Z,84.93
2019-03-28T10:33:49.060Z,85.01
2019-03-28T10:36:39.902Z,84.41
2019-03-28T10:39:30.859Z,83.92
2019-03-28T10:42:21.474Z,84.17
2019-03-28T10:45:12.408Z,84.18
2019-03-28T10:48:03.312Z,84.46
2019-03-28T10:50:54.355Z,85.33
2019-03-28T10:53:46.357Z,84.19
2019-03-28T10:56:50.711Z,84.12
2019-03-28T10:59:29.218Z,83.99
2019-03-28T11:02:20.245Z,84.23
2019-03-28T11:05:11.531Z,83.88
2019-03-28T11:08:02.343Z,84.04
2019-03-28T11:10:53.462Z,83.73
2019-03-28T11:13:44.592Z,83.69
2019-03-28T11:16:37.177Z,84.54
2019-03-28T11:19:27.724Z,83.28
2019-03-28T11:22:18.279Z,83.48
2019-03-28T11:25:09.749Z,84.47
2019-03-28T11:28:00.490Z,84.60
2019-03-28T11:30:51.579Z,84.53
2019-03-28T11:33:42.720Z,83.59
2019-03-28T11:36:33.144Z,84.00
2019-03-28T11:39:23.962Z,83.87
2019-03-28T11:42:14.882Z,83.83
2019-03-28T11:45:09.038Z,84.11
2019-03-28T11:47:58.545Z,83.43
2019-03-28T11:50:49.100Z,83.40
2019-03-28T11:53:39.970Z,84.00
2019-03-28T11:56:30.638Z,83.36
2019-03-28T11:59:21.447Z,82.66
2019-03-28T12:02:19.557Z,83.52
2019-03-28T12:05:07.157Z,83.60
2019-03-28T12:07:58.441Z,83.68
2019-03-28T12:10:49.343Z,82.82
2019-03-28T12:13:45.105Z,84.16
2019-03-28T12:16:32.392Z,82.60
2019-03-28T12:19:23.360Z,83.87
2019-03-28T12:22:14.377Z,83.67
2019-03-28T12:25:05.527Z,83.50
2019-03-28T12:27:55.994Z,83.93
2019-03-28T12:30:46.899Z,82.78
2019-03-28T12:33:37.464Z,83.79
2019-03-28T12:36:28.392Z,83.41
2019-03-28T12:39:19.128Z,83.72
2019-03-28T12:42:10.647Z,83.91
2019-03-28T12:45:01.188Z,84.01
2019-03-28T12:47:51.516Z,84.50
2019-03-28T12:50:42.747Z,84.17
2019-03-28T12:53:33.194Z,83.34
2019-03-28T12:56:26.407Z,83.73
2019-03-28T12:59:17.249Z,84.34
2019-03-28T13:02:08.521Z,83.44
2019-03-28T13:04:59.740Z,84.31
2019-03-28T13:07:50.215Z,82.95
2019-03-28T13:10:41.884Z,83.43
2019-03-28T13:13:32.065Z,83.36
2019-03-28T13:16:22.195Z,84.37
2019-03-28T13:19:12.335Z,85.24
2019-03-28T13:22:03.275Z,83.63
2019-03-28T13:24:54.127Z,84.09
2019-03-28T13:27:45.270Z,84.36
2019-03-28T13:30:36.163Z,83.94
2019-03-28T13:33:27.023Z,84.29
2019-03-28T13:36:17.962Z,83.46
2019-03-28T13:39:09.635Z,83.13
2019-03-28T13:42:00.368Z,83.47
2019-03-28T13:44:50.978Z,84.78
2019-03-28T13:47:42.000Z,84.00
2019-03-28T13:50:32.297Z,83.74
2019-03-28T13:53:22.406Z,84.35
2019-03-28T13:56:12.261Z,84.39
2019-03-28T13:59:02.132Z,83.85
2019-03-28T14:01:52.612Z,83.93
2019-03-28T14:04:43.335Z,84.82
2019-03-28T14:07:33.896Z,84.32
2019-03-28T14:10:24.635Z,84.73
2019-03-28T14:13:15.430Z,84.71
2019-03-28T14:16:06.047Z,83.89
2019-03-28T14:18:57.497Z,83.48
2019-03-28T14:21:48.795Z,83.28
2019-03-28T14:24:39.992Z,84.49
2019-03-28T14:27:30.912Z,82.94
2019-03-28T14:30:22.000Z,85.23
2019-03-28T14:33:15.719Z,85.08
2019-03-28T14:36:04.807Z,84.42
2019-03-28T14:38:55.182Z,83.46
2019-03-28T14:41:46.503Z,84.32
2019-03-28T14:44:37.702Z,84.95
2019-03-28T14:47:28.372Z,84.65
2019-03-28T14:50:41.484Z,85.91
2019-03-28T14:53:33.427Z,85.35
2019-03-28T14:56:26.173Z,85.45
2019-03-28T14:59:31.391Z,85.08
2019-03-28T15:02:11.361Z,84.91
2019-03-28T15:05:02.361Z,85.85
2019-03-28T15:07:52.423Z,86.06
2019-03-28T15:10:44.435Z,85.63
2019-03-28T15:13:35.595Z,85.95
2019-03-28T15:16:26.328Z,84.83
2019-03-28T15:19:17.261Z,85.14
2019-03-28T15:22:07.956Z,85.35
2019-03-28T15:24:58.722Z,86.08
2019-03-28T15:27:49.215Z,85.96
2019-03-28T15:30:40.701Z,86.01
2019-03-28T15:33:39.461Z,85.91
2019-03-28T15:36:23.744Z,86.25
2019-03-28T15:39:14.446Z,86.46
2019-03-28T15:42:05.729Z,85.91
2019-03-28T15:44:56.359Z,85.87
2019-03-28T15:47:47.368Z,85.97
2019-03-28T15:50:38.402Z,85.29
2019-03-28T15:53:29.193Z,85.20
2019-03-28T15:56:20.725Z,85.25
2019-03-28T15:59:11.529Z,85.52
2019-03-28T16:02:02.617Z,85.59
2019-03-28T16:04:52.811Z,84.86
2019-03-28T16:07:42.590Z,84.54
2019-03-28T16:10:33.006Z,85.03
2019-03-28T16:13:23.443Z,86.00
2019-03-28T16:16:15.355Z,85.88
2019-03-28T16:19:13.208Z,85.07
2019-03-28T16:22:15.477Z,84.57
2019-03-28T16:25:06.980Z,85.44
2019-03-28T16:28:04.885Z,86.11
2019-03-28T16:30:55.485Z,85.54
2019-03-28T16:33:46.900Z,84.99
2019-03-28T16:36:37.913Z,85.72
2019-03-28T16:39:29.056Z,85.62
2019-03-28T16:42:19.885Z,85.11
2019-03-28T16:45:11.427Z,85.31
2019-03-28T16:48:02.100Z,85.20
2019-03-28T16:50:52.712Z,85.74
2019-03-28T16:53:42.843Z,85.62
2019-03-28T16:56:33.497Z,85.62
2019-03-28T16:59:24.286Z,84.95
2019-03-28T17:02:15.064Z,86.00
2019-03-28T17:05:07.072Z,84.81
2019-03-28T17:07:58.027Z,85.54
2019-03-28T17:10:52.960Z,85.46
2019-03-28T17:13:42.620Z,85.44
2019-03-28T17:16:32.366Z,84.75
2019-03-28T17:19:23.012Z,84.74
2019-03-28T17:22:13.289Z,85.73
2019-03-28T17:25:04.759Z,85.40
2019-03-28T17:27:54.889Z,85.74
2019-03-28T17:30:45.639Z,84.99
2019-03-28T17:33:35.220Z,85.17
2019-03-28T17:36:26.959Z,84.95
2019-03-28T17:39:17.966Z,85.23
2019-03-28T17:42:09.085Z,85.48
2019-03-28T17:44:59.891Z,85.38
2019-03-28T17:47:50.559Z,85.43
2019-03-28T17:50:46.515Z,85.25
2019-03-28T17:53:37.152Z,85.17
2019-03-28T17:56:27.997Z,85.15
2019-03-28T17:59:19.652Z,85.13
2019-03-28T18:02:10.739Z,85.10
2019-03-28T18:05:09.123Z,85.02
2019-03-28T18:07:54.481Z,85.22
2019-03-28T18:10:45.482Z,85.16
2019-03-28T18:13:36.135Z,85.13
2019-03-28T18:16:26.762Z,85.22
2019-03-28T18:19:17.690Z,85.31
2019-03-28T18:22:07.755Z,85.21
2019-03-28T18:24:58.959Z,85.07
2019-03-28T18:27:48.669Z,85.72
2019-03-28T18:30:39.668Z,85.26
2019-03-28T18:33:30.480Z,85.32
2019-03-28T18:36:20.740Z,85.25
2019-03-28T18:39:12.468Z,85.12
2019-03-28T18:42:03.256Z,85.03
2019-03-28T18:44:53.168Z,85.35
2019-03-28T18:47:43.332Z,85.15
2019-03-28T18:50:33.764Z,85.38
2019-03-28T18:53:24.254Z,85.24
2019-03-28T18:56:14.743Z,85.73
2019-03-28T18:59:07.066Z,85.37
2019-03-28T19:01:58.189Z,85.45
2019-03-28T19:04:49.186Z,85.25
2019-03-28T19:07:40.136Z,85.31
2019-03-28T19:10:30.322Z,85.33
2019-03-28T19:13:20.546Z,85.26
2019-03-28T19:16:11.072Z,85.16
2019-03-28T19:19:01.436Z,85.39
2019-03-28T19:21:55.716Z,85.28
2019-03-28T19:24:44.904Z,85.54
2019-03-28T19:27:35.703Z,85.29
2019-03-28T19:30:34.745Z,85.48
2019-03-28T19:33:25.386Z,85.30
2019-03-28T19:36:16.746Z,85.51
2019-03-28T19:39:11.216Z,85.40
2019-03-28T19:42:04.483Z,85.35
2019-03-28T19:44:54.071Z,84.54
2019-03-28T19:47:43.872Z,85.78
2019-03-28T19:50:34.618Z,85.23
2019-03-28T19:53:25.237Z,85.43
2019-03-28T19:56:16.027Z,85.31
2019-03-28T19:59:06.387Z,85.29
2019-03-28T20:01:56.962Z,85.32
2019-03-28T20:04:47.853Z,85.53
2019-03-28T20:07:38.319Z,84.89
2019-03-28T20:10:28.791Z,85.10
2019-03-28T20:13:19.568Z,85.07
2019-03-28T20:16:10.510Z,85.28
2019-03-28T20:19:00.030Z,85.16
2019-03-28T20:21:50.559Z,85.18
2019-03-28T20:24:41.528Z,85.30
2019-03-28T20:27:32.356Z,85.31
2019-03-28T20:30:25.163Z,85.13
2019-03-28T20:33:14.873Z,85.28
2019-03-28T20:36:30.038Z,84.77
2019-03-28T20:39:04.139Z,85.12
2019-03-28T20:41:49.895Z,84.98
2019-03-28T20:44:41.512Z,84.96
2019-03-28T20:47:32.026Z,85.10
2019-03-28T20:50:22.470Z,85.13
2019-03-28T20:53:13.571Z,84.85
2019-03-28T20:56:04.382Z,85.19
2019-03-28T20:58:55.388Z,85.05
2019-03-28T21:01:46.308Z,85.03
2019-03-28T21:04:38.109Z,85.24
2019-03-28T21:07:29.046Z,85.13
2019-03-28T21:10:26.894Z,85.00
2019-03-28T21:13:16.944Z,85.18
2019-03-28T21:16:07.455Z,85.16
2019-03-28T21:18:58.629Z,85.16
2019-03-28T21:21:50.248Z,85.04
2019-03-28T21:24:41.417Z,85.00
2019-03-28T21:27:32.952Z,85.15
2019-03-28T21:30:26.947Z,85.11
2019-03-28T21:33:16.238Z,85.13
2019-03-28T21:36:07.142Z,85.19
2019-03-28T21:38:58.020Z,85.18
2019-03-28T21:41:48.912Z,85.15
2019-03-28T21:44:39.654Z,85.10
2019-03-28T21:47:30.243Z,85.16
2019-03-28T21:50:20.980Z,85.05
2019-03-28T21:53:12.067Z,85.29
2019-03-28T21:56:02.597Z,85.16
2019-03-28T21:58:53.346Z,85.08
2019-03-28T22:01:45.146Z,85.20
2019-03-28T22:04:35.801Z,85.04
2019-03-28T22:07:26.706Z,85.07
2019-03-28T22:10:17.413Z,85.14
2019-03-28T22:13:07.238Z,85.12
2019-03-28T22:15:58.238Z,85.10
2019-03-28T22:18:50.266Z,85.08
2019-03-28T22:21:40.753Z,84.98
2019-03-28T22:24:31.457Z,85.09
2019-03-28T22:27:22.243Z,85.10
2019-03-28T22:30:13.657Z,85.08
2019-03-28T22:33:04.378Z,85.05
2019-03-28T22:35:55.353Z,85.02
2019-03-28T22:38:46.866Z,85.05
2019-03-28T22:41:37.731Z,85.09
2019-03-28T22:44:28.343Z,85.06
2019-03-28T22:47:18.935Z,85.17
2019-03-28T22:50:10.589Z,85.20
2019-03-28T22:53:01.564Z,84.96
2019-03-28T22:55:52.528Z,84.88
2019-03-28T22:58:43.391Z,85.05
2019-03-28T23:01:34.518Z,85.13
2019-03-28T23:04:25.440Z,85.15
2019-03-28T23:07:17.493Z,85.12
2019-03-28T23:10:09.986Z,84.90
2019-03-28T23:13:01.042Z,85.08
2019-03-28T23:15:51.914Z,84.97
2019-03-28T23:18:43.509Z,85.13
2019-03-28T23:21:33.996Z,85.04
2019-03-28T23:24:24.919Z,85.01
2019-03-28T23:27:15.807Z,84.90
2019-03-28T23:30:07.479Z,84.97
2019-03-28T23:32:58.783Z,85.14
2019-03-28T23:35:50.235Z,84.99
2019-03-28T23:38:40.854Z,84.83
2019-03-28T23:41:31.745Z,85.03
2019-03-28T23:44:22.740Z,84.99
2019-03-28T23:47:13.790Z,84.81
2019-03-28T23:50:04.505Z,84.88
2019-03-28T23:52:55.603Z,84.88
2019-03-28T23:55:46.455Z,84.94
2019-03-28T23:58:36.855Z,85.06
